< < Back
Terminal Aerodrome Forecast


Current Version              Previous Versions:   1  2  3  4  5  6  7  8  9  

Terminal Aerodrome Forecast

756
FTUS42 KGSP 301700 RRA
TAFHKY
TAF
KHKY 301742Z 3018/3118 17005KT P6SM SCT060
     FM310200 16003KT P6SM BKN060
     FM310900 00000KT 4SM BR BKN060
     FM311300 00000KT P6SM BKN060
     FM311600 20005KT P6SM BKN050 PROB30 3116/3118 4SM TSRA
      BKN040CB=

Latest METAR

149
SAUS70 KWBC 310800 RRF
MTRHKY
METAR KHKY 310753Z AUTO 19003KT 10SM SCT060 OVC080 24/19 A3017 RMK AO2
SLP192 T02390194


USA.gov is the U.S. government's official web portal to all federal, state and local government web resources and services.